Pagina principală
METAR-TAF:

METAR-TAF

Aeroporturi :

Nowra, Australia

Latitudine: 34-57S, longitudine: 150-32E, elevație: 122 m

Observații meteo curente

Raportul a fost făcut în urmă cu 1 oră și 5 de minute, la 16:00 UTC
Vânt 12 kt de la Vest/Nord-vest
Temperatură 23°C
Umiditate 38%
Presiune 1001 hPa
Vizibilitate de 10 km sau mai mult

METAR: YSNW 181600Z AUTO 29012KT 9999 // NCD 23/08 Q1001

Ora: 04:05 (17:05 UTC)


TAF: lipsă

Observații și prognoze meteo pentru peste 4.000 de aeroporturi (rapoarte METAR și TAF).

Stațiile disponibile sunt reprezentate pe hartă prin puncte galbene și roșii.

Țineți indicatorul mouse-ului pe punctul dorit pentru a vedea denumirea stației.

Apoi, faceți clic pentru a vedea observațiile și prognozele meteorologice.

Pentru a schimba harta: Pentru mărire, faceți clic pe butoanele verzi cu cruce neagră; pentru micșorare, pe butonul verde cu o liniuță; pentru hărți învecinate, pe săgețile verzi.


METAR-TAF: